Time;durP1;ratioP1;P1;durP2;ratioP2;P2;SDS_P1;SDS_P2;PMS_P1;PMS_P2;Temp;Humidity;BMP_temperature;BMP_pressure;BME280_temperature;BME280_humidity;BME280_pressure;Samples;Min_cycle;Max_cycle;Signal;HPM_P1;HPM_P2
2021/06/06 00:00:52;;;;;;;121.00;62.10;;;;;;;14.59;83.13;100028.94;5013470;28;20041;-61
2021/06/06 00:03:25;;;;;;;114.70;63.35;;;;;;;14.60;82.65;100027.88;5014355;28;20079;-61
2021/06/06 00:05:59;;;;;;;112.93;61.28;;;;;;;14.64;82.74;100019.03;5013589;28;20144;-61
2021/06/06 00:08:25;;;;;;;113.90;59.90;;;;;;;14.57;83.21;100022.97;5014081;28;20026;-61
2021/06/06 00:10:52;;;;;;;132.20;64.30;;;;;;;14.65;82.22;100027.94;5013573;28;20040;-60
2021/06/06 00:13:18;;;;;;;127.38;64.63;;;;;;;14.64;82.63;100029.00;4996812;28;20064;-61
2021/06/06 00:15:44;;;;;;;124.85;64.03;;;;;;;14.46;83.59;100027.41;5013577;28;20156;-61
2021/06/06 00:18:10;;;;;;;129.07;62.75;;;;;;;14.49;83.47;100026.91;5013849;28;20460;-61
2021/06/06 00:20:37;;;;;;;126.93;62.20;;;;;;;14.40;83.63;100023.81;5013227;28;20033;-61
2021/06/06 00:23:03;;;;;;;128.25;64.13;;;;;;;14.38;84.10;100019.75;5013801;28;20014;-61
2021/06/06 00:25:28;;;;;;;119.32;60.13;;;;;;;14.46;83.30;100016.59;5013372;28;20050;-61
2021/06/06 00:27:54;;;;;;;123.28;62.03;;;;;;;14.46;83.34;100014.72;5012474;28;20108;-61
2021/06/06 00:30:20;;;;;;;122.47;61.08;;;;;;;14.35;84.38;100021.06;5013317;28;20084;-61
2021/06/06 00:32:45;;;;;;;136.43;64.93;;;;;;;14.28;83.99;100022.25;5013653;28;20026;-61
2021/06/06 00:35:11;;;;;;;124.78;60.97;;;;;;;14.18;84.26;100020.25;5013249;28;20084;-61
2021/06/06 00:37:37;;;;;;;132.52;62.92;;;;;;;14.20;84.18;100020.81;5013514;28;20014;-61
2021/06/06 00:40:04;;;;;;;132.07;62.40;;;;;;;14.17;84.65;100013.22;5013233;28;20029;-61
2021/06/06 00:42:30;;;;;;;121.75;58.15;;;;;;;14.09;84.50;100008.25;5013373;28;20045;-60
2021/06/06 00:44:55;;;;;;;131.07;63.45;;;;;;;14.09;84.51;100011.75;5013430;28;20022;-60
2021/06/06 00:47:21;;;;;;;132.55;62.80;;;;;;;14.09;84.07;100019.03;5011827;28;20100;-61
2021/06/06 00:49:46;;;;;;;135.30;63.17;;;;;;;14.00;84.80;100008.66;5014021;28;20124;-61
2021/06/06 00:52:12;;;;;;;123.60;59.85;;;;;;;14.08;84.01;100012.84;5013057;28;20084;-61
2021/06/06 00:54:46;;;;;;;123.22;60.08;;;;;;;14.12;83.90;100016.66;5012259;28;20049;-61
2021/06/06 00:57:23;;;;;;;134.55;59.20;;;;;;;14.04;84.37;100025.16;5011803;28;20096;-61
2021/06/06 00:59:54;;;;;;;130.48;59.85;;;;;;;14.00;83.66;100027.53;5011797;28;20049;-61
2021/06/06 01:02:21;;;;;;;127.07;58.85;;;;;;;14.02;83.76;100022.69;4995828;28;20038;-61
2021/06/06 01:04:46;;;;;;;125.20;60.10;;;;;;;14.01;83.80;100028.34;5012292;28;20048;-61
2021/06/06 01:07:12;;;;;;;128.20;60.85;;;;;;;13.95;84.39;100030.16;5012869;28;20489;-61
2021/06/06 01:09:37;;;;;;;130.52;60.42;;;;;;;14.01;83.71;100020.25;5013285;28;20357;-61
2021/06/06 01:12:19;;;;;;;124.63;58.58;;;;;;;13.95;83.98;100027.47;5012009;28;20507;-61
2021/06/06 01:14:49;;;;;;;121.45;58.70;;;;;;;13.91;84.01;100023.59;4996740;28;20583;-60
2021/06/06 01:17:14;;;;;;;136.07;60.45;;;;;;;13.88;83.96;100029.50;5011492;28;20091;-61
2021/06/06 01:19:49;;;;;;;118.72;56.00;;;;;;;13.88;84.11;100037.56;5013184;28;20029;-61
2021/06/06 01:23:12;;;;;;;134.55;59.30;;;;;;;13.96;83.81;100039.84;4995727;28;20069;-61
2021/06/06 01:25:41;;;;;;;129.50;58.90;;;;;;;13.89;84.14;100036.50;4990758;28;20166;-61
2021/06/06 01:28:13;;;;;;;131.52;57.10;;;;;;;13.98;83.62;100039.63;4975254;28;20588;-61
2021/06/06 01:30:42;;;;;;;116.47;55.40;;;;;;;14.00;83.68;100034.78;4997148;28;20108;-61
2021/06/06 01:33:18;;;;;;;123.07;57.50;;;;;;;13.97;83.42;100033.41;4976482;28;20033;-61
2021/06/06 01:35:53;;;;;;;121.97;56.58;;;;;;;13.92;83.79;100037.88;4991602;28;20134;-61
2021/06/06 01:38:30;;;;;;;118.65;57.22;;;;;;;13.88;83.66;100034.88;4992036;28;20030;-61
2021/06/06 01:40:57;;;;;;;125.70;58.92;;;;;;;13.94;84.00;100030.38;4999078;28;20396;-61
2021/06/06 01:43:25;;;;;;;126.78;55.03;;;;;;;13.89;83.19;100023.03;4995601;28;20030;-61
2021/06/06 01:45:54;;;;;;;114.63;54.67;;;;;;;13.94;83.14;100031.19;5011123;28;20053;-61
2021/06/06 01:48:20;;;;;;;112.47;56.08;;;;;;;13.96;83.35;100028.28;4996008;28;20057;-61
2021/06/06 01:51:07;;;;;;;123.20;56.58;;;;;;;13.98;82.86;100021.56;5009212;28;20046;-61
2021/06/06 01:53:32;;;;;;;121.55;56.28;;;;;;;13.94;83.08;100022.31;4995948;28;20424;-61
2021/06/06 01:56:03;;;;;;;111.75;52.90;;;;;;;13.92;83.92;100024.41;4994967;28;20030;-61
2021/06/06 01:58:28;;;;;;;112.00;53.90;;;;;;;13.83;83.86;100021.31;5012491;28;20133;-61
2021/06/06 02:01:03;;;;;;;125.65;57.42;;;;;;;13.83;84.11;100015.94;5011306;28;20057;-61
2021/06/06 02:03:29;;;;;;;126.28;56.85;;;;;;;13.75;84.08;100017.16;5012840;28;20384;-61
2021/06/06 02:05:55;;;;;;;128.88;56.75;;;;;;;13.77;84.02;100014.22;5011210;28;20037;-60
2021/06/06 02:08:20;;;;;;;129.02;56.58;;;;;;;13.72;84.64;100024.91;4995223;28;20480;-61
2021/06/06 02:10:50;;;;;;;120.03;57.67;;;;;;;13.77;84.12;100020.41;5010949;28;20037;-61
2021/06/06 02:13:18;;;;;;;121.53;56.23;;;;;;;13.79;84.22;100017.47;4995584;28;20483;-61
2021/06/06 02:15:44;;;;;;;122.78;56.63;;;;;;;13.71;84.59;100016.00;5012156;28;20034;-61
2021/06/06 02:18:09;;;;;;;123.88;54.08;;;;;;;13.76;84.28;100016.09;4995016;28;20060;-61
2021/06/06 02:20:42;;;;;;;110.78;54.80;;;;;;;13.72;84.45;100019.50;5012061;28;20041;-61
2021/06/06 02:23:08;;;;;;;123.93;55.03;;;;;;;13.67;85.10;100019.44;5014774;28;20065;-61
2021/06/06 02:25:35;;;;;;;122.97;54.78;;;;;;;13.62;85.21;100020.16;5014361;28;20061;-61
2021/06/06 02:28:04;;;;;;;124.40;53.85;;;;;;;13.59;85.38;100028.72;5015065;28;20033;-60
2021/06/06 02:30:34;;;;;;;120.90;54.80;;;;;;;13.58;85.44;100022.53;5015650;28;20066;-61
2021/06/06 02:33:14;;;;;;;122.90;55.05;;;;;;;13.53;85.80;100027.00;5014661;28;20026;-61
2021/06/06 02:35:49;;;;;;;120.70;53.42;;;;;;;13.59;85.43;100031.41;5014440;28;20034;-61
2021/06/06 02:38:20;;;;;;;119.50;54.90;;;;;;;13.62;85.27;100032.81;5014939;28;20149;-60
2021/06/06 02:40:52;;;;;;;118.40;55.03;;;;;;;13.55;85.89;100028.41;5015388;28;20562;-61
2021/06/06 02:43:29;;;;;;;119.30;54.28;;;;;;;13.65;85.11;100024.22;5014748;28;20029;-61
2021/06/06 02:45:56;;;;;;;116.88;52.92;;;;;;;13.45;86.48;100022.81;4998567;28;20050;-61
2021/06/06 02:48:33;;;;;;;117.57;53.88;;;;;;;13.53;85.95;100030.53;5015530;28;20540;-61
2021/06/06 02:51:01;;;;;;;113.20;53.63;;;;;;;13.44;86.21;100021.19;5014121;28;20048;-60
2021/06/06 02:53:28;;;;;;;126.55;53.72;;;;;;;13.48;86.11;100022.34;5014552;28;20022;-60
2021/06/06 02:56:23;;;;;;;115.25;52.75;;;;;;;13.48;86.12;100016.97;4997916;28;20393;-60
2021/06/06 02:58:59;;;;;;;109.85;50.55;;;;;;;13.57;86.37;100025.44;5015225;28;20053;-61
2021/06/06 03:01:31;;;;;;;114.45;52.72;;;;;;;13.46;86.27;100024.47;5013764;28;20046;-61
2021/06/06 03:03:58;;;;;;;112.40;52.28;;;;;;;13.51;86.03;100027.25;5014236;28;20033;-60
2021/06/06 03:06:36;;;;;;;118.55;51.17;;;;;;;13.53;85.72;100027.81;4997572;28;20419;-60
2021/06/06 03:09:03;;;;;;;110.75;50.83;;;;;;;13.57;85.99;100020.88;5014168;28;20139;-61
2021/06/06 03:11:29;;;;;;;119.18;52.78;;;;;;;13.56;85.76;100018.44;5013452;28;20512;-61
2021/06/06 03:14:01;;;;;;;109.15;50.00;;;;;;;13.51;85.91;100023.75;4997567;28;20029;-61
2021/06/06 03:16:27;;;;;;;106.80;50.95;;;;;;;13.50;85.49;100020.22;5013702;28;20049;-60
2021/06/06 03:18:54;;;;;;;109.75;51.03;;;;;;;13.50;85.75;100019.41;5014010;28;20034;-61
2021/06/06 03:21:39;;;;;;;105.88;49.05;;;;;;;13.46;85.73;100019.06;5013558;28;20048;-60
2021/06/06 03:24:28;;;;;;;118.45;51.25;;;;;;;13.34;85.85;100015.63;5014249;28;20395;-61
2021/06/06 03:26:54;;;;;;;96.68;48.88;;;;;;;13.45;85.00;100012.03;5013501;28;20045;-61
2021/06/06 03:29:35;;;;;;;110.35;48.00;;;;;;;13.39;85.35;100010.31;5015169;28;20388;-61
2021/06/06 03:32:10;;;;;;;112.53;51.05;;;;;;;13.30;85.48;100011.75;4999044;28;20112;-61
2021/06/06 03:34:35;;;;;;;122.43;53.00;;;;;;;13.22;86.21;100017.50;4996641;28;20411;-61
2021/06/06 03:37:01;;;;;;;115.22;50.63;;;;;;;13.25;85.98;100017.03;5012925;28;20095;-60
2021/06/06 03:39:27;;;;;;;114.75;51.55;;;;;;;13.23;85.93;100013.75;5013654;28;20025;-61
2021/06/06 03:41:56;;;;;;;117.55;51.60;;;;;;;13.20;86.50;100019.63;5014324;28;20045;-61
2021/06/06 03:44:22;;;;;;;110.47;50.30;;;;;;;13.27;86.25;100020.34;5014796;28;20026;-61
2021/06/06 03:46:48;;;;;;;111.38;51.13;;;;;;;13.20;86.14;100019.63;5014271;28;20034;-61
2021/06/06 03:49:13;;;;;;;114.68;51.92;;;;;;;13.12;87.14;100018.13;5014584;28;20107;-60
2021/06/06 03:51:39;;;;;;;114.72;52.20;;;;;;;13.18;86.30;100019.88;5014256;28;20034;-61
2021/06/06 03:54:05;;;;;;;114.30;51.58;;;;;;;13.15;86.23;100017.66;5014786;28;20060;-61
2021/06/06 03:56:31;;;;;;;116.03;51.25;;;;;;;13.19;86.33;100012.63;5014274;28;20539;-62
2021/06/06 03:58:56;;;;;;;124.60;52.67;;;;;;;13.09;86.40;100024.00;5010968;28;20034;-61
2021/06/06 04:01:22;;;;;;;121.60;54.03;;;;;;;13.16;86.36;100022.81;5012600;28;20402;-61
2021/06/06 04:03:47;;;;;;;121.60;52.47;;;;;;;13.11;86.44;100024.59;5014608;28;20017;-61
2021/06/06 04:06:13;;;;;;;123.65;51.70;;;;;;;13.04;86.92;100021.22;5013951;28;20404;-60
2021/06/06 04:08:38;;;;;;;125.05;53.85;;;;;;;13.04;86.32;100026.59;5013169;28;20029;-61
2021/06/06 04:11:04;;;;;;;131.65;53.90;;;;;;;12.90;87.14;100021.50;5013916;28;20060;-61
2021/06/06 04:13:29;;;;;;;133.23;53.70;;;;;;;12.95;86.78;100023.44;5014184;28;20022;-61
2021/06/06 04:15:55;;;;;;;127.55;54.63;;;;;;;12.99;86.79;100018.41;5012307;28;20037;-61
2021/06/06 04:18:22;;;;;;;113.82;49.40;;;;;;;13.11;86.22;100028.09;5014015;28;20599;-60
2021/06/06 04:20:49;;;;;;;117.93;51.72;;;;;;;13.03;86.88;100022.25;5013535;28;20137;-61
2021/06/06 04:23:14;;;;;;;117.75;50.63;;;;;;;13.03;86.94;100020.41;5013906;28;20104;-61
2021/06/06 04:25:40;;;;;;;113.22;49.45;;;;;;;13.01;86.68;100025.19;5012232;28;20034;-60
2021/06/06 04:28:06;;;;;;;110.90;49.60;;;;;;;13.05;86.52;100023.66;5012495;28;20026;-61
2021/06/06 04:30:31;;;;;;;101.25;48.25;;;;;;;12.98;86.29;100022.16;5013436;28;20038;-60
2021/06/06 04:32:57;;;;;;;104.55;48.45;;;;;;;13.05;85.54;100028.22;5013603;28;20464;-60
2021/06/06 04:35:22;;;;;;;110.57;49.53;;;;;;;12.98;85.70;100022.16;5013567;28;20030;-60
2021/06/06 04:37:48;;;;;;;121.63;52.92;;;;;;;12.95;86.13;100020.75;5013641;28;20156;-60
2021/06/06 04:40:14;;;;;;;126.25;51.90;;;;;;;13.01;85.71;100019.81;5011595;28;20421;-60
2021/06/06 04:42:39;;;;;;;125.97;53.10;;;;;;;13.08;85.05;100033.13;5013616;28;20072;-60
2021/06/06 04:45:06;;;;;;;128.35;53.00;;;;;;;13.04;85.21;100027.41;5011747;28;20026;-60
2021/06/06 04:47:31;;;;;;;129.23;54.58;;;;;;;12.99;85.68;100040.75;5013497;28;20022;-60
2021/06/06 04:49:57;;;;;;;136.80;55.13;;;;;;;13.04;85.51;100038.16;5013429;28;20041;-60
2021/06/06 04:52:22;;;;;;;138.30;56.60;;;;;;;12.99;85.54;100038.06;5012897;28;20042;-60
2021/06/06 04:54:48;;;;;;;131.27;53.83;;;;;;;13.07;85.18;100039.56;5013404;28;20121;-60
2021/06/06 04:57:13;;;;;;;124.70;52.33;;;;;;;13.17;84.92;100045.97;5012980;28;20049;-60
2021/06/06 04:59:39;;;;;;;144.13;56.97;;;;;;;12.98;85.69;100044.53;5013057;28;20049;-61
2021/06/06 05:02:11;;;;;;;138.30;58.33;;;;;;;12.91;86.06;100041.13;5012964;28;20061;-60
2021/06/06 05:04:37;;;;;;;147.05;59.42;;;;;;;12.95;85.75;100039.59;5013155;28;20030;-61
2021/06/06 05:07:03;;;;;;;148.90;60.55;;;;;;;12.99;85.80;100034.56;5011497;28;20037;-61
2021/06/06 05:09:28;;;;;;;162.38;61.85;;;;;;;13.03;85.14;100041.09;5013299;28;20053;-60
2021/06/06 05:11:54;;;;;;;149.63;59.25;;;;;;;13.08;85.44;100039.34;5012793;28;20034;-61
2021/06/06 05:14:19;;;;;;;145.82;58.63;;;;;;;13.02;85.34;100040.28;5013057;28;20045;-61
2021/06/06 05:16:45;;;;;;;150.70;63.17;;;;;;;13.07;84.73;100045.75;5012388;28;20034;-61
2021/06/06 05:19:10;;;;;;;145.73;59.42;;;;;;;13.06;84.58;100043.31;5012966;28;20026;-61
2021/06/06 05:21:36;;;;;;;146.65;59.08;;;;;;;13.10;84.31;100045.31;5012666;28;20252;-60
2021/06/06 05:24:02;;;;;;;144.88;58.47;;;;;;;12.98;84.95;100047.22;5012925;28;20018;-60
2021/06/06 05:26:28;;;;;;;132.68;56.70;;;;;;;12.99;84.92;100045.34;5012606;28;20429;-61
2021/06/06 05:28:53;;;;;;;141.13;53.13;;;;;;;12.98;84.73;100047.22;5012914;28;20033;-60
2021/06/06 05:31:20;;;;;;;130.93;52.80;;;;;;;12.89;85.17;100044.06;5012636;28;20108;-60
2021/06/06 05:33:45;;;;;;;129.93;52.10;;;;;;;12.99;84.31;100054.22;5012995;28;20404;-61
2021/06/06 05:36:11;;;;;;;137.30;55.00;;;;;;;12.78;85.59;100049.44;5012466;28;20053;-60
2021/06/06 05:38:37;;;;;;;131.40;51.15;;;;;;;12.76;86.02;100056.97;5012784;28;20546;-60
2021/06/06 05:41:02;;;;;;;123.75;50.78;;;;;;;12.76;85.94;100059.66;5012467;28;20042;-61
2021/06/06 05:43:28;;;;;;;114.20;48.20;;;;;;;12.90;85.79;100058.31;5012761;28;20018;-61
2021/06/06 05:45:54;;;;;;;110.32;47.00;;;;;;;12.78;85.37;100061.06;5012708;28;20034;-60
2021/06/06 05:48:20;;;;;;;107.70;45.40;;;;;;;12.84;85.74;100059.28;5011492;28;20030;-61
2021/06/06 05:50:46;;;;;;;114.97;46.58;;;;;;;12.70;86.16;100062.25;5012420;28;20038;-61
2021/06/06 05:53:12;;;;;;;112.05;46.83;;;;;;;12.71;86.04;100055.78;5012850;28;20068;-61
2021/06/06 05:55:37;;;;;;;117.55;48.47;;;;;;;12.79;85.95;100053.78;5007910;28;20480;-61
2021/06/06 05:58:04;;;;;;;112.35;47.13;;;;;;;12.74;86.33;100060.69;5014760;28;20125;-62
2021/06/06 06:00:34;;;;;;;109.38;46.67;;;;;;;12.97;85.60;100061.69;5016335;28;20037;-61
2021/06/06 06:03:00;;;;;;;99.72;45.30;;;;;;;12.91;85.61;100062.66;5016863;28;20081;-61
2021/06/06 06:05:26;;;;;;;110.32;46.20;;;;;;;13.01;85.66;100062.06;5016262;28;20443;-61
2021/06/06 06:07:51;;;;;;;105.18;45.78;;;;;;;12.93;85.72;100069.44;5016321;28;20026;-61
2021/06/06 06:10:23;;;;;;;104.63;45.92;;;;;;;12.88;85.61;100065.81;5014854;28;20026;-61
2021/06/06 06:12:49;;;;;;;102.13;43.78;;;;;;;12.91;85.66;100059.97;5016544;28;20105;-61
2021/06/06 06:15:14;;;;;;;98.22;44.08;;;;;;;12.93;86.37;100064.06;5014803;28;20520;-61
2021/06/06 06:17:40;;;;;;;102.20;43.08;;;;;;;12.97;85.57;100059.00;5016615;28;20029;-61
2021/06/06 06:20:08;;;;;;;90.57;42.08;;;;;;;12.93;85.26;100057.88;5016036;28;20052;-61
2021/06/06 06:22:33;;;;;;;95.35;42.47;;;;;;;13.06;84.93;100060.28;5016371;28;20018;-61
2021/06/06 06:24:59;;;;;;;94.32;41.42;;;;;;;13.11;84.57;100064.97;5016234;28;20535;-61
2021/06/06 06:27:24;;;;;;;97.20;40.85;;;;;;;13.03;84.57;100068.84;5015781;28;20088;-61
2021/06/06 06:29:49;;;;;;;95.63;42.22;;;;;;;13.08;84.31;100074.31;5014602;28;20026;-61
2021/06/06 06:32:15;;;;;;;97.80;39.63;;;;;;;13.17;84.48;100064.78;5015648;28;20042;-61
2021/06/06 06:34:40;;;;;;;99.25;41.90;;;;;;;13.21;84.25;100070.53;5016038;28;20337;-61
2021/06/06 06:37:06;;;;;;;91.88;40.17;;;;;;;13.15;84.52;100064.25;5014225;28;20086;-61
2021/06/06 06:39:31;;;;;;;90.18;37.90;;;;;;;13.45;83.61;100062.38;5015703;28;20034;-61
2021/06/06 06:41:57;;;;;;;83.72;37.80;;;;;;;13.44;83.48;100060.75;5013960;28;20038;-61
2021/06/06 06:44:22;;;;;;;87.97;38.92;;;;;;;13.46;83.49;100062.16;5015986;28;20018;-61
2021/06/06 06:46:48;;;;;;;88.70;37.10;;;;;;;13.50;83.81;100070.56;5015396;28;20148;-61
2021/06/06 06:49:14;;;;;;;84.18;36.58;;;;;;;13.53;82.89;100064.72;5015883;28;20030;-61
2021/06/06 06:51:39;;;;;;;79.43;37.03;;;;;;;13.61;83.38;100064.31;5015491;28;20034;-61
2021/06/06 06:54:05;;;;;;;74.85;35.17;;;;;;;13.52;83.26;100069.25;5014528;28;20061;-61
2021/06/06 06:56:31;;;;;;;76.70;36.40;;;;;;;13.37;83.76;100067.09;5015455;28;20076;-61
2021/06/06 06:58:56;;;;;;;72.35;33.78;;;;;;;13.41;83.72;100063.94;5015335;28;20385;-61
2021/06/06 07:01:22;;;;;;;67.82;32.65;;;;;;;13.70;82.66;100070.13;5013595;28;20042;-61
2021/06/06 07:03:47;;;;;;;73.80;33.00;;;;;;;13.89;81.46;100070.72;5014056;28;20083;-61
2021/06/06 07:06:13;;;;;;;67.38;32.65;;;;;;;13.81;82.31;100069.25;5013624;28;20432;-61
2021/06/06 07:08:39;;;;;;;73.70;31.42;;;;;;;13.86;81.96;100072.03;5012975;28;20410;-61
2021/06/06 07:11:05;;;;;;;63.28;30.83;;;;;;;14.05;82.13;100077.97;5013481;28;20038;-61
2021/06/06 07:13:31;;;;;;;61.60;31.73;;;;;;;14.19;80.73;100087.38;5014987;28;20491;-61
2021/06/06 07:15:59;;;;;;;61.80;31.33;;;;;;;13.89;81.45;100086.88;5014531;28;20038;-61
2021/06/06 07:18:24;;;;;;;60.63;28.52;;;;;;;14.05;80.70;100079.88;5015237;28;20064;-62
2021/06/06 07:20:53;;;;;;;62.38;28.73;;;;;;;13.89;81.22;100079.63;5014771;28;20097;-61
2021/06/06 07:23:19;;;;;;;68.95;31.75;;;;;;;13.76;82.45;100088.03;5015051;28;20377;-62
2021/06/06 07:25:44;;;;;;;57.53;29.45;;;;;;;13.87;82.96;100087.13;5013016;28;20033;-62
2021/06/06 07:28:11;;;;;;;62.33;28.75;;;;;;;13.85;82.69;100089.25;5014862;28;20026;-61
2021/06/06 07:30:41;;;;;;;54.95;27.90;;;;;;;13.84;83.03;100086.81;5014647;28;20084;-61
2021/06/06 07:33:07;;;;;;;58.97;30.35;;;;;;;13.77;82.51;100089.63;5014862;28;20030;-61
2021/06/06 07:35:32;;;;;;;59.50;29.05;;;;;;;13.90;81.77;100089.31;5014364;28;20109;-61
2021/06/06 07:37:58;;;;;;;53.35;28.13;;;;;;;13.90;82.80;100086.63;5013419;28;20058;-62
2021/06/06 07:40:28;;;;;;;52.55;25.63;;;;;;;13.93;81.82;100088.88;5014248;28;20060;-61
2021/06/06 07:42:54;;;;;;;53.08;27.63;;;;;;;13.68;82.77;100086.53;5014874;28;20014;-61
2021/06/06 07:45:19;;;;;;;56.08;27.83;;;;;;;13.82;82.70;100087.03;5014453;28;20464;-61
2021/06/06 07:47:45;;;;;;;64.03;30.17;;;;;;;13.97;83.17;100095.38;5014738;28;20052;-61
2021/06/06 07:50:13;;;;;;;56.80;29.23;;;;;;;14.28;81.48;100089.66;5014217;28;20444;-61
2021/06/06 07:52:38;;;;;;;55.90;28.02;;;;;;;14.22;81.97;100094.16;4997072;28;20033;-61
2021/06/06 07:55:05;;;;;;;62.70;28.45;;;;;;;14.16;81.47;100092.47;5014087;28;20037;-61
2021/06/06 07:57:31;;;;;;;56.33;28.33;;;;;;;14.34;81.14;100084.13;5011223;28;20030;-61
2021/06/06 07:59:56;;;;;;;55.60;28.85;;;;;;;14.32;81.35;100091.63;5014158;28;20103;-61
2021/06/06 08:02:21;;;;;;;52.65;28.00;;;;;;;14.50;80.52;100081.66;5013890;28;20119;-62
2021/06/06 08:04:47;;;;;;;55.78;27.75;;;;;;;14.57;80.99;100085.84;5012997;28;20081;-61
2021/06/06 08:07:12;;;;;;;48.58;25.83;;;;;;;14.68;79.63;100078.72;5012479;28;20049;-61
2021/06/06 08:09:38;;;;;;;53.63;26.20;;;;;;;14.42;80.72;100078.31;5014194;28;20037;-61
2021/06/06 08:12:04;;;;;;;53.92;27.23;;;;;;;14.45;80.95;100080.53;5012566;28;20037;-61
2021/06/06 08:14:29;;;;;;;60.47;26.92;;;;;;;14.89;79.82;100088.72;5014123;28;20096;-62
2021/06/06 08:16:55;;;;;;;54.47;25.63;;;;;;;15.02;78.65;100087.53;5013683;28;20049;-61
2021/06/06 08:19:20;;;;;;;43.13;24.00;;;;;;;14.71;79.82;100085.50;5014068;28;20053;-61
2021/06/06 08:21:49;;;;;;;49.50;24.83;;;;;;;14.28;81.63;100084.28;5013345;28;20484;-61
2021/06/06 08:24:15;;;;;;;40.17;23.40;;;;;;;14.16;82.07;100081.69;5014071;28;20057;-61
2021/06/06 08:26:40;;;;;;;42.72;23.05;;;;;;;14.14;82.67;100078.41;5013400;28;20455;-61
2021/06/06 08:29:06;;;;;;;47.55;24.15;;;;;;;14.24;81.49;100075.88;5013781;28;20026;-61
2021/06/06 08:31:33;;;;;;;43.05;22.23;;;;;;;14.19;81.60;100082.00;5013547;28;20030;-61
2021/06/06 08:33:58;;;;;;;40.20;22.13;;;;;;;14.36;81.00;100082.00;5013791;28;20108;-61
2021/06/06 08:36:30;;;;;;;38.08;20.90;;;;;;;14.31;81.33;100079.22;5013291;28;20118;-61
2021/06/06 08:38:56;;;;;;;38.92;21.52;;;;;;;14.54;80.42;100077.44;5013896;28;20080;-61
2021/06/06 08:41:22;;;;;;;39.25;22.42;;;;;;;14.34;81.00;100083.31;5013248;28;20034;-61
2021/06/06 08:43:57;;;;;;;37.67;21.08;;;;;;;14.25;80.85;100085.59;5012390;28;20026;-62
2021/06/06 08:46:23;;;;;;;40.00;22.80;;;;;;;14.16;81.29;100087.06;5011898;28;20038;-61
2021/06/06 08:48:49;;;;;;;42.53;21.75;;;;;;;14.19;81.62;100083.88;5013428;28;20115;-61
2021/06/06 08:51:20;;;;;;;43.58;21.90;;;;;;;14.30;80.62;100088.34;5013353;28;20065;-61
2021/06/06 08:54:03;;;;;;;36.13;20.25;;;;;;;14.43;80.42;100093.44;5012507;28;20426;-61
2021/06/06 08:56:33;;;;;;;38.42;21.33;;;;;;;14.22;81.13;100089.59;5011945;28;20034;-61
2021/06/06 08:59:10;;;;;;;38.65;21.10;;;;;;;14.31;81.67;100087.31;5012012;28;20096;-61
2021/06/06 09:01:38;;;;;;;39.95;22.50;;;;;;;14.09;81.90;100092.63;4995509;28;20488;-61
2021/06/06 09:04:11;;;;;;;36.70;21.02;;;;;;;14.51;80.83;100099.47;5013311;28;20033;-61
2021/06/06 09:06:51;;;;;;;42.20;22.58;;;;;;;14.27;81.54;100088.84;5013087;28;20030;-61
2021/06/06 09:09:17;;;;;;;41.40;22.08;;;;;;;14.48;80.32;100090.00;5013387;28;20017;-61
2021/06/06 09:11:43;;;;;;;43.35;22.45;;;;;;;14.42;80.72;100085.59;5012761;28;20046;-61
2021/06/06 09:14:09;;;;;;;39.25;21.08;;;;;;;14.52;80.85;100083.03;5013422;28;20033;-61
2021/06/06 09:16:55;;;;;;;40.70;21.88;;;;;;;14.20;81.76;100080.13;5012917;28;20431;-61
2021/06/06 09:19:21;;;;;;;42.67;21.73;;;;;;;14.15;81.72;100080.03;5013053;28;20484;-61
2021/06/06 09:21:58;;;;;;;41.63;22.60;;;;;;;14.49;81.07;100085.41;5012655;28;20125;-61
2021/06/06 09:24:37;;;;;;;45.45;24.35;;;;;;;14.62;80.38;100085.09;5013173;28;20030;-61
2021/06/06 09:27:08;;;;;;;44.95;23.13;;;;;;;14.46;80.55;100076.75;5012842;28;20492;-61
2021/06/06 09:29:34;;;;;;;41.70;21.42;;;;;;;14.36;81.61;100086.59;5013135;28;20040;-61
2021/06/06 09:32:08;;;;;;;46.25;23.77;;;;;;;14.19;82.45;100083.88;5011943;28;20038;-60
2021/06/06 09:34:33;;;;;;;48.38;23.92;;;;;;;14.40;82.12;100083.16;5013048;28;20025;-61
2021/06/06 09:37:10;;;;;;;52.88;25.48;;;;;;;14.32;82.04;100086.25;5012624;28;20121;-61
2021/06/06 09:39:46;;;;;;;54.55;25.92;;;;;;;14.22;82.83;100089.59;5011704;28;20121;-61
2021/06/06 09:42:33;;;;;;;52.78;24.70;;;;;;;14.40;82.32;100093.94;5011391;28;20121;-61
2021/06/06 09:45:20;;;;;;;54.55;26.95;;;;;;;14.42;82.76;100091.78;5013005;28;20018;-61
2021/06/06 09:47:57;;;;;;;56.33;26.55;;;;;;;14.49;82.08;100090.81;5012345;28;20046;-61
2021/06/06 09:50:23;;;;;;;57.47;27.83;;;;;;;14.34;82.83;100094.91;5012669;28;20065;-61
2021/06/06 09:52:48;;;;;;;49.42;26.95;;;;;;;14.42;81.90;100097.19;5011659;28;20042;-60
2021/06/06 09:55:26;;;;;;;54.45;28.27;;;;;;;14.35;82.48;100099.25;5011050;28;20051;-60
2021/06/06 09:57:53;;;;;;;52.25;28.63;;;;;;;14.50;81.60;100108.63;5012644;28;20469;-61
2021/06/06 10:00:19;;;;;;;60.13;29.73;;;;;;;14.24;83.06;100105.53;5012136;28;20045;-61
2021/06/06 10:02:52;;;;;;;56.53;28.45;;;;;;;14.32;82.83;100115.09;5012929;28;20030;-61
2021/06/06 10:05:40;;;;;;;57.53;29.60;;;;;;;14.63;81.95;100116.41;5009243;28;20453;-61
2021/06/06 10:08:14;;;;;;;58.25;29.27;;;;;;;14.52;81.45;100117.28;5011320;28;20361;-61
2021/06/06 10:10:46;;;;;;;62.05;29.77;;;;;;;14.53;82.16;100121.63;5011000;28;20022;-61
2021/06/06 10:13:14;;;;;;;68.68;29.38;;;;;;;14.44;82.47;100119.34;4995732;28;20473;-61
2021/06/06 10:15:59;;;;;;;60.95;30.80;;;;;;;14.55;82.29;100128.44;4994939;28;20025;-60
2021/06/06 10:18:32;;;;;;;64.72;31.23;;;;;;;14.28;83.01;100128.25;5012364;28;20443;-61
2021/06/06 10:21:04;;;;;;;62.20;30.17;;;;;;;14.37;82.01;100115.97;5010622;28;20473;-61
2021/06/06 10:23:32;;;;;;;66.05;29.98;;;;;;;14.65;80.72;100116.97;5012370;28;20022;-61
2021/06/06 10:26:37;;;;;;;67.70;28.63;;;;;;;14.54;81.67;100120.59;5011844;28;20045;-60
2021/06/06 10:29:38;;;;;;;68.43;31.90;;;;;;;14.30;82.64;100118.03;5010943;28;20065;-61
2021/06/06 10:32:17;;;;;;;65.65;30.38;;;;;;;14.49;81.80;100112.41;5004263;28;20048;-61
2021/06/06 10:34:53;;;;;;;64.00;30.42;;;;;;;14.66;81.39;100119.44;5012466;28;20103;-61
2021/06/06 10:37:18;;;;;;;65.85;32.25;;;;;;;14.66;80.93;100118.63;5010586;28;20037;-61
2021/06/06 10:39:56;;;;;;;65.72;31.40;;;;;;;14.65;81.57;100117.81;5012201;28;20074;-61
2021/06/06 10:42:32;;;;;;;70.93;30.88;;;;;;;14.43;81.69;100120.41;5010684;28;20068;-61
2021/06/06 10:45:25;;;;;;;66.55;31.30;;;;;;;14.62;81.87;100118.28;5015642;28;20017;-61
2021/06/06 10:48:19;;;;;;;65.10;29.95;;;;;;;14.49;81.75;100112.41;5015586;28;20074;-61
2021/06/06 10:50:45;;;;;;;64.13;32.08;;;;;;;14.51;82.35;100118.38;5014141;28;20041;-61
2021/06/06 10:53:11;;;;;;;70.95;33.25;;;;;;;14.55;82.08;100114.13;5015529;28;20045;-61
2021/06/06 10:55:51;;;;;;;75.95;34.25;;;;;;;14.43;82.73;100109.63;5015226;28;20065;-61
2021/06/06 10:58:19;;;;;;;74.88;33.63;;;;;;;14.52;82.33;100112.72;5015595;28;20053;-61
2021/06/06 11:01:02;;;;;;;78.22;35.35;;;;;;;14.26;83.39;100116.09;5013992;28;20124;-61
2021/06/06 11:03:30;;;;;;;70.85;33.95;;;;;;;14.56;81.75;100118.47;5014428;28;20022;-61
2021/06/06 11:05:57;;;;;;;79.65;35.10;;;;;;;14.50;82.64;100117.53;5015140;28;20088;-61
2021/06/06 11:08:26;;;;;;;78.68;34.88;;;;;;;14.34;83.42;100121.88;5014124;28;20469;-61
2021/06/06 11:10:51;;;;;;;82.85;36.78;;;;;;;14.22;84.41;100118.44;5014882;28;20061;-61
2021/06/06 11:13:46;;;;;;;81.40;35.03;;;;;;;14.15;84.30;100118.63;5014221;28;20061;-61